Time,TemperatureF,DewpointF,PressureIn,WindDirection,WindDirectionDegrees,WindSpeedMPH,WindSpeedGustMPH,Humidity,HourlyPrecipIn,Conditions,Clouds,dailyrainin,SoftwareType,DateUTC
2013-01-02 00:02:00,69.0,67.0,29.97,West,259,1.0,6.0,93,0.00,,,0.00,,2013-01-02 06:02:00,
2013-01-02 00:12:00,69.0,67.0,29.97,West,259,1.0,6.0,93,0.00,,,0.00,,2013-01-02 06:12:00,
2013-01-02 00:22:00,68.0,66.0,29.98,West,270,2.0,4.0,93,0.14,,,0.14,,2013-01-02 06:22:00,
2013-01-02 00:32:00,67.0,65.0,29.98,WNW,290,0.0,0.0,93,0.14,,,0.14,,2013-01-02 06:32:00,
2013-01-02 00:42:00,67.0,65.0,29.98,WNW,290,0.0,0.0,93,0.14,,,0.14,,2013-01-02 06:42:00,
2013-01-02 00:53:00,63.0,61.0,29.98,WNW,302,4.0,4.0,93,0.14,,,0.14,,2013-01-02 06:53:00,
2013-01-02 01:02:00,62.0,60.0,29.98,NW,314,1.0,5.0,93,0.14,,,0.14,,2013-01-02 07:02:00,
2013-01-02 01:12:00,62.0,60.0,29.98,NW,314,1.0,5.0,93,0.14,,,0.14,,2013-01-02 07:12:00,
2013-01-02 01:22:00,60.0,58.0,29.98,NW,306,0.0,0.0,93,0.00,,,0.14,,2013-01-02 07:22:00,
2013-01-02 01:32:00,60.0,58.0,29.99,NNE,24,1.0,5.0,93,0.00,,,0.14,,2013-01-02 07:32:00,
2013-01-02 01:42:00,60.0,58.0,29.99,NNE,24,1.0,5.0,93,0.00,,,0.14,,2013-01-02 07:42:00,
2013-01-02 01:52:00,59.0,57.0,29.99,NW,315,0.0,2.0,94,0.00,,,0.14,,2013-01-02 07:52:00,
2013-01-02 02:02:00,58.0,56.0,29.99,NW,306,0.0,0.0,94,0.00,,,0.14,,2013-01-02 08:02:00,
2013-01-02 02:11:00,58.0,56.0,29.99,NW,306,0.0,0.0,94,0.00,,,0.14,,2013-01-02 08:11:00,
2013-01-02 02:22:00,58.0,56.0,29.99,NNW,346,0.0,0.0,94,0.00,,,0.14,,2013-01-02 08:22:00,
2013-01-02 02:32:00,58.0,56.0,30.00,NE,51,0.0,2.0,94,0.00,,,0.14,,2013-01-02 08:32:00,
2013-01-02 02:42:00,58.0,56.0,30.00,NE,51,0.0,2.0,94,0.00,,,0.14,,2013-01-02 08:42:00,
2013-01-02 02:53:00,57.0,55.0,30.01,NW,311,0.0,0.0,94,0.00,,,0.14,,2013-01-02 08:53:00,
2013-01-02 03:02:00,57.0,56.0,30.00,North,350,0.0,0.0,95,0.00,,,0.14,,2013-01-02 09:02:00,
2013-01-02 03:12:00,57.0,56.0,30.00,North,350,0.0,0.0,95,0.00,,,0.14,,2013-01-02 09:12:00,
2013-01-02 03:22:00,56.0,55.0,30.02,NW,311,0.0,3.0,95,0.00,,,0.14,,2013-01-02 09:22:00,
2013-01-02 03:32:00,56.0,54.0,30.02,WNW,288,0.0,3.0,94,0.00,,,0.14,,2013-01-02 09:32:00,
2013-01-02 03:43:00,56.0,54.0,30.02,WNW,288,0.0,3.0,94,0.00,,,0.14,,2013-01-02 09:43:00,
2013-01-02 03:53:00,56.0,55.0,30.01,NNW,330,0.0,1.0,95,0.00,,,0.14,,2013-01-02 09:53:00,
2013-01-02 04:02:00,56.0,55.0,30.01,North,360,0.0,2.0,95,0.00,,,0.14,,2013-01-02 10:02:00,
2013-01-02 04:12:00,55.0,54.0,30.02,NNE,13,2.0,2.0,95,0.00,,,0.14,,2013-01-02 10:12:00,
2013-01-02 04:22:00,55.0,54.0,30.02,NNE,13,2.0,2.0,95,0.00,,,0.14,,2013-01-02 10:22:00,
2013-01-02 04:32:00,55.0,54.0,30.02,NNW,328,0.0,0.0,95,0.00,,,0.14,,2013-01-02 10:32:00,
2013-01-02 04:42:00,55.0,54.0,30.02,NNW,328,0.0,0.0,95,0.00,,,0.14,,2013-01-02 10:42:00,
2013-01-02 04:52:00,55.0,54.0,30.01,NNE,14,0.0,3.0,95,0.00,,,0.14,,2013-01-02 10:52:00,
2013-01-02 05:02:00,55.0,54.0,30.02,NNE,12,0.0,0.0,95,0.00,,,0.14,,2013-01-02 11:02:00,
2013-01-02 05:12:00,55.0,54.0,30.02,NNE,12,0.0,0.0,95,0.00,,,0.14,,2013-01-02 11:12:00,
2013-01-02 05:22:00,55.0,53.0,30.03,NNE,20,1.0,4.0,94,0.00,,,0.14,,2013-01-02 11:22:00,
2013-01-02 05:32:00,54.0,53.0,30.03,NW,315,0.0,3.0,95,0.00,,,0.14,,2013-01-02 11:32:00,
2013-01-02 05:42:00,54.0,53.0,30.03,NW,315,0.0,3.0,95,0.00,,,0.14,,2013-01-02 11:42:00,
2013-01-02 05:53:00,54.0,52.0,30.03,NNE,18,1.0,4.0,94,0.00,,,0.14,,2013-01-02 11:53:00,
2013-01-02 06:02:00,53.0,51.0,30.03,North,9,3.0,3.0,94,0.00,,,0.14,,2013-01-02 12:02:00,
2013-01-02 06:12:00,53.0,51.0,30.03,North,9,3.0,3.0,94,0.00,,,0.14,,2013-01-02 12:12:00,
2013-01-02 06:22:00,53.0,51.0,30.05,NW,310,0.0,10.0,94,0.00,,,0.14,,2013-01-02 12:22:00,
2013-01-02 06:32:00,52.0,50.0,30.05,North,360,1.0,3.0,94,0.00,,,0.14,,2013-01-02 12:32:00,
2013-01-02 06:42:00,52.0,50.0,30.05,North,360,1.0,3.0,94,0.00,,,0.14,,2013-01-02 12:42:00,
2013-01-02 06:53:00,52.0,50.0,30.06,North,360,0.0,0.0,94,0.00,,,0.14,,2013-01-02 12:53:00,
2013-01-02 07:02:00,52.0,50.0,30.06,North,10,0.0,1.0,94,0.00,,,0.14,,2013-01-02 13:02:00,
2013-01-02 07:12:00,52.0,50.0,30.06,North,10,0.0,1.0,94,0.00,,,0.14,,2013-01-02 13:12:00,
2013-01-02 07:22:00,52.0,50.0,30.07,North,5,0.0,0.0,94,0.00,,,0.14,,2013-01-02 13:22:00,
2013-01-02 07:32:00,52.0,50.0,30.06,ENE,78,5.0,6.0,94,0.00,,,0.14,,2013-01-02 13:32:00,
2013-01-02 07:42:00,52.0,50.0,30.06,ENE,78,5.0,6.0,94,0.00,,,0.14,,2013-01-02 13:42:00,
2013-01-02 07:52:00,53.0,51.0,30.07,North,9,0.0,0.0,94,0.00,,,0.14,,2013-01-02 13:52:00,
2013-01-02 08:02:00,53.0,51.0,30.09,NNE,13,0.0,0.0,94,0.00,,,0.14,,2013-01-02 14:02:00,
2013-01-02 08:12:00,53.0,51.0,30.09,NNE,13,0.0,0.0,94,0.00,,,0.14,,2013-01-02 14:12:00,
2013-01-02 08:22:00,53.0,51.0,30.09,NNE,15,4.0,5.0,94,0.00,,,0.14,,2013-01-02 14:22:00,
2013-01-02 08:33:00,53.0,51.0,30.08,NNE,12,0.0,0.0,94,0.00,,,0.14,,2013-01-02 14:33:00,
2013-01-02 08:42:00,53.0,51.0,30.08,NNE,12,0.0,0.0,94,0.00,,,0.14,,2013-01-02 14:42:00,
2013-01-02 08:53:00,53.0,51.0,30.09,NNE,30,2.0,4.0,93,0.00,,,0.14,,2013-01-02 14:53:00,
2013-01-02 09:03:00,54.0,52.0,30.09,NNW,336,8.0,8.0,93,0.00,,,0.14,,2013-01-02 15:03:00,
2013-01-02 09:12:00,54.0,52.0,30.09,NNW,336,8.0,8.0,93,0.00,,,0.14,,2013-01-02 15:12:00,
2013-01-02 09:22:00,54.0,52.0,30.12,NNW,341,0.0,6.0,92,0.00,,,0.14,,2013-01-02 15:22:00,
2013-01-02 09:33:00,54.0,51.0,30.12,NNW,337,0.0,1.0,91,0.00,,,0.14,,2013-01-02 15:33:00,
2013-01-02 09:42:00,54.0,51.0,30.12,NNW,337,0.0,1.0,91,0.00,,,0.14,,2013-01-02 15:42:00,
2013-01-02 09:53:00,55.0,52.0,30.11,NNE,14,3.0,3.0,89,0.00,,,0.14,,2013-01-02 15:53:00,
2013-01-02 10:03:00,55.0,52.0,30.12,North,5,0.0,1.0,89,0.00,,,0.14,,2013-01-02 16:03:00,
2013-01-02 10:12:00,55.0,52.0,30.12,North,5,0.0,1.0,89,0.00,,,0.14,,2013-01-02 16:12:00,
2013-01-02 10:22:00,55.0,52.0,30.12,WNW,298,0.0,3.0,88,0.00,,,0.14,,2013-01-02 16:22:00,
2013-01-02 10:33:00,56.0,52.0,30.12,NE,40,3.0,5.0,86,0.00,,,0.14,,2013-01-02 16:33:00,
2013-01-02 10:42:00,56.0,52.0,30.12,NE,40,3.0,5.0,86,0.00,,,0.14,,2013-01-02 16:42:00,
2013-01-02 10:53:00,57.0,52.0,30.12,NNE,17,0.0,4.0,82,0.00,,,0.14,,2013-01-02 16:53:00,
2013-01-02 11:03:00,57.0,52.0,30.11,North,360,3.0,4.0,82,0.00,,,0.14,,2013-01-02 17:03:00,
2013-01-02 11:12:00,57.0,52.0,30.11,North,360,3.0,4.0,82,0.00,,,0.14,,2013-01-02 17:12:00,
2013-01-02 11:23:00,58.0,52.0,30.11,NNW,344,3.0,5.0,80,0.00,,,0.14,,2013-01-02 17:23:00,
2013-01-02 11:33:00,59.0,52.0,30.10,NNE,32,0.0,6.0,78,0.00,,,0.14,,2013-01-02 17:33:00,
2013-01-02 11:43:00,59.0,52.0,30.10,NNE,32,0.0,6.0,78,0.00,,,0.14,,2013-01-02 17:43:00,
2013-01-02 11:53:00,60.0,52.0,30.09,NE,44,0.0,0.0,75,0.00,,,0.14,,2013-01-02 17:53:00,
2013-01-02 12:02:00,60.0,52.0,30.09,NNE,24,8.0,10.0,74,0.00,,,0.14,,2013-01-02 18:02:00,
2013-01-02 12:12:00,60.0,52.0,30.09,NNE,24,8.0,10.0,74,0.00,,,0.14,,2013-01-02 18:12:00,
2013-01-02 12:22:00,61.0,52.0,30.08,NNW,348,0.0,3.0,71,0.00,,,0.14,,2013-01-02 18:22:00,
2013-01-02 12:33:00,60.0,51.0,30.08,NNE,29,2.0,5.0,71,0.00,,,0.14,,2013-01-02 18:33:00,
2013-01-02 12:42:00,60.0,51.0,30.08,NNE,29,2.0,5.0,71,0.00,,,0.14,,2013-01-02 18:42:00,
2013-01-02 12:53:00,60.0,51.0,30.06,North,9,2.0,2.0,73,0.00,,,0.14,,2013-01-02 18:53:00,
2013-01-02 13:03:00,61.0,52.0,30.06,North,9,3.0,3.0,72,0.00,,,0.14,,2013-01-02 19:03:00,
2013-01-02 13:12:00,61.0,52.0,30.06,North,9,3.0,3.0,72,0.00,,,0.14,,2013-01-02 19:12:00,
2013-01-02 13:22:00,61.0,52.0,30.05,NNW,335,2.0,3.0,71,0.00,,,0.14,,2013-01-02 19:22:00,
2013-01-02 13:32:00,61.0,52.0,30.05,North,360,0.0,3.0,71,0.00,,,0.14,,2013-01-02 19:32:00,
2013-01-02 13:43:00,61.0,52.0,30.05,North,360,0.0,3.0,71,0.00,,,0.14,,2013-01-02 19:43:00,
2013-01-02 13:53:00,60.0,50.0,30.05,NNW,327,3.0,5.0,70,0.00,,,0.14,,2013-01-02 19:53:00,
2013-01-02 14:03:00,60.0,50.0,30.05,NNE,15,0.0,4.0,70,0.00,,,0.14,,2013-01-02 20:03:00,
2013-01-02 14:12:00,60.0,50.0,30.05,NNE,15,0.0,4.0,70,0.00,,,0.14,,2013-01-02 20:12:00,
2013-01-02 14:23:00,60.0,52.0,30.04,North,9,0.0,0.0,74,0.01,,,0.15,,2013-01-02 20:23:00,
2013-01-02 14:33:00,59.0,51.0,30.04,North,355,0.0,3.0,75,0.01,,,0.15,,2013-01-02 20:33:00,
2013-01-02 14:42:00,59.0,51.0,30.04,North,355,0.0,3.0,75,0.01,,,0.15,,2013-01-02 20:42:00,
2013-01-02 14:53:00,58.0,50.0,30.05,NW,307,0.0,3.0,76,0.01,,,0.15,,2013-01-02 20:53:00,
2013-01-02 15:03:00,58.0,51.0,30.06,NW,318,2.0,3.0,77,0.01,,,0.15,,2013-01-02 21:03:00,
2013-01-02 15:12:00,58.0,51.0,30.06,NW,318,2.0,3.0,77,0.01,,,0.15,,2013-01-02 21:12:00,
2013-01-02 15:22:00,58.0,52.0,30.07,NNE,18,1.0,1.0,79,0.00,,,0.15,,2013-01-02 21:22:00,
2013-01-02 15:32:00,58.0,52.0,30.07,NNE,15,2.0,4.0,79,0.00,,,0.15,,2013-01-02 21:32:00,
2013-01-02 15:42:00,58.0,52.0,30.07,NNE,15,2.0,4.0,79,0.00,,,0.15,,2013-01-02 21:42:00,
2013-01-02 15:53:00,58.0,51.0,30.06,NNE,13,0.0,1.0,78,0.00,,,0.15,,2013-01-02 21:53:00,
2013-01-02 16:02:00,58.0,51.0,30.07,NNW,329,0.0,0.0,78,0.00,,,0.15,,2013-01-02 22:02:00,
2013-01-02 16:12:00,58.0,51.0,30.07,NNW,329,0.0,0.0,78,0.00,,,0.15,,2013-01-02 22:12:00,
2013-01-02 16:22:00,57.0,51.0,30.07,North,5,0.0,4.0,79,0.00,,,0.15,,2013-01-02 22:22:00,
2013-01-02 16:32:00,57.0,51.0,30.07,NW,320,0.0,0.0,79,0.00,,,0.15,,2013-01-02 22:32:00,
2013-01-02 16:42:00,57.0,51.0,30.07,NW,320,0.0,0.0,79,0.00,,,0.15,,2013-01-02 22:42:00,
2013-01-02 16:53:00,57.0,51.0,30.08,WNW,296,0.0,0.0,80,0.00,,,0.15,,2013-01-02 22:53:00,
2013-01-02 17:03:00,56.0,50.0,30.09,West,277,0.0,0.0,81,0.00,,,0.15,,2013-01-02 23:03:00,
2013-01-02 17:12:00,56.0,50.0,30.09,NW,308,0.0,0.0,81,0.00,,,0.15,,2013-01-02 23:12:00,
2013-01-02 17:23:00,56.0,50.0,30.09,NW,308,0.0,0.0,81,0.00,,,0.15,,2013-01-02 23:23:00,
2013-01-02 17:33:00,56.0,50.0,30.09,NW,308,0.0,0.0,81,0.00,,,0.15,,2013-01-02 23:33:00,
2013-01-02 17:42:00,56.0,50.0,30.09,NW,308,0.0,0.0,81,0.00,,,0.15,,2013-01-02 23:42:00,
2013-01-02 17:53:00,54.0,49.0,30.12,West,279,5.0,5.0,82,0.00,,,0.15,,2013-01-02 23:53:00,
2013-01-02 18:02:00,54.0,49.0,30.12,West,279,5.0,5.0,82,0.00,,,0.15,,2013-01-03 00:02:00,
2013-01-02 18:12:00,54.0,49.0,30.12,West,279,5.0,5.0,82,0.00,,,0.15,,2013-01-03 00:12:00,
2013-01-02 18:22:00,53.0,48.0,30.14,NW,315,0.0,0.0,83,0.00,,,0.15,,2013-01-03 00:22:00,
2013-01-02 18:38:00,53.0,48.0,30.15,NW,315,3.0,8.0,83,0.00,,,0.15,,2013-01-03 00:38:00,
2013-01-02 18:52:00,52.0,47.0,30.16,WNW,294,0.0,3.0,83,0.00,,,0.15,,2013-01-03 00:52:00,
2013-01-02 19:02:00,52.0,47.0,30.16,North,360,0.0,2.0,83,0.00,,,0.15,,2013-01-03 01:02:00,
2013-01-02 19:12:00,52.0,47.0,30.16,North,360,0.0,2.0,83,0.00,,,0.15,,2013-01-03 01:12:00,
2013-01-02 19:22:00,51.0,46.0,30.14,North,11,3.0,4.0,83,0.00,,,0.15,,2013-01-03 01:22:00,
2013-01-02 19:32:00,51.0,46.0,30.15,NNW,337,0.0,4.0,84,0.00,,,0.15,,2013-01-03 01:32:00,
2013-01-02 19:42:00,51.0,46.0,30.15,NNW,337,0.0,4.0,84,0.00,,,0.15,,2013-01-03 01:42:00,
2013-01-02 19:52:00,51.0,46.0,30.15,NW,305,0.0,0.0,84,0.00,,,0.15,,2013-01-03 01:52:00,
2013-01-02 20:02:00,51.0,47.0,30.15,North,9,0.0,0.0,85,0.00,,,0.15,,2013-01-03 02:02:00,
2013-01-02 20:12:00,51.0,47.0,30.15,North,9,0.0,0.0,85,0.00,,,0.15,,2013-01-03 02:12:00,
2013-01-02 20:22:00,50.0,46.0,30.15,North,5,0.0,0.0,85,0.00,,,0.15,,2013-01-03 02:22:00,
2013-01-02 20:33:00,50.0,46.0,30.16,ENE,72,0.0,0.0,85,0.00,,,0.15,,2013-01-03 02:33:00,
2013-01-02 20:42:00,50.0,46.0,30.16,ENE,72,0.0,0.0,85,0.00,,,0.15,,2013-01-03 02:42:00,
2013-01-02 20:52:00,50.0,46.0,30.16,ENE,72,0.0,0.0,85,0.00,,,0.15,,2013-01-03 02:52:00,
2013-01-02 21:02:00,50.0,46.0,30.16,NW,321,0.0,4.0,86,0.00,,,0.15,,2013-01-03 03:02:00,
2013-01-02 21:12:00,49.0,45.0,30.15,North,355,1.0,7.0,86,0.00,,,0.15,,2013-01-03 03:12:00,
2013-01-02 21:22:00,49.0,45.0,30.15,North,355,1.0,7.0,86,0.00,,,0.15,,2013-01-03 03:22:00,
2013-01-02 21:46:00,49.0,45.0,30.16,NNE,19,0.0,1.0,87,0.00,,,0.15,,2013-01-03 03:46:00,
2013-01-02 21:53:00,49.0,45.0,30.17,NNW,345,0.0,1.0,87,0.00,,,0.15,,2013-01-03 03:53:00,
2013-01-02 22:02:00,49.0,45.0,30.16,NW,321,0.0,0.0,87,0.00,,,0.15,,2013-01-03 04:02:00,
2013-01-02 22:12:00,49.0,45.0,30.16,NW,321,0.0,0.0,87,0.00,,,0.15,,2013-01-03 04:12:00,
2013-01-02 22:22:00,48.0,44.0,30.17,NNE,22,0.0,2.0,87,0.00,,,0.15,,2013-01-03 04:22:00,
2013-01-02 22:32:00,48.0,44.0,30.17,NW,310,0.0,0.0,87,0.00,,,0.15,,2013-01-03 04:32:00,
2013-01-02 22:42:00,48.0,44.0,30.17,NW,310,0.0,0.0,87,0.00,,,0.15,,2013-01-03 04:42:00,
2013-01-02 22:52:00,48.0,44.0,30.17,North,360,0.0,0.0,87,0.00,,,0.15,,2013-01-03 04:52:00,
2013-01-02 23:03:00,48.0,44.0,30.17,North,5,0.0,6.0,87,0.00,,,0.15,,2013-01-03 05:03:00,
2013-01-02 23:12:00,48.0,44.0,30.17,North,5,0.0,6.0,87,0.00,,,0.15,,2013-01-03 05:12:00,
2013-01-02 23:22:00,48.0,44.0,30.18,NNE,30,0.0,0.0,87,0.00,,,0.15,,2013-01-03 05:22:00,
2013-01-02 23:33:00,48.0,44.0,30.18,NNE,26,0.0,0.0,87,0.00,,,0.15,,2013-01-03 05:33:00,
2013-01-02 23:42:00,48.0,44.0,30.18,NNE,26,0.0,0.0,87,0.00,,,0.15,,2013-01-03 05:42:00,
2013-01-02 23:53:00,48.0,44.0,30.15,NE,55,0.0,0.0,87,0.00,,,0.15,,2013-01-03 05:53:00,